sensor_id;sensor_type;location;lat;lon;timestamp;P1;durP1;ratioP1;P2;durP2;ratioP2
55202;SDS011;41077;52.956;6.796;2023-05-24T00:00:41;22.42;;;7.57;;
55202;SDS011;41077;52.956;6.796;2023-05-24T00:03:07;32.40;;;9.43;;
55202;SDS011;41077;52.956;6.796;2023-05-24T00:05:33;38.60;;;8.68;;
55202;SDS011;41077;52.956;6.796;2023-05-24T00:08:05;33.78;;;8.18;;
55202;SDS011;41077;52.956;6.796;2023-05-24T00:10:31;30.58;;;8.68;;
55202;SDS011;41077;52.956;6.796;2023-05-24T00:12:57;35.65;;;9.85;;
55202;SDS011;41077;52.956;6.796;2023-05-24T00:15:23;36.20;;;9.10;;
55202;SDS011;41077;52.956;6.796;2023-05-24T00:17:49;37.50;;;9.00;;
55202;SDS011;41077;52.956;6.796;2023-05-24T00:20:15;49.42;;;8.95;;
55202;SDS011;41077;52.956;6.796;2023-05-24T00:22:41;34.50;;;9.07;;
55202;SDS011;41077;52.956;6.796;2023-05-24T00:25:07;31.85;;;8.80;;
55202;SDS011;41077;52.956;6.796;2023-05-24T00:27:33;32.85;;;8.10;;
55202;SDS011;41077;52.956;6.796;2023-05-24T00:30:01;34.03;;;8.43;;
55202;SDS011;41077;52.956;6.796;2023-05-24T00:32:27;28.67;;;9.18;;
55202;SDS011;41077;52.956;6.796;2023-05-24T00:34:53;31.42;;;8.48;;
55202;SDS011;41077;52.956;6.796;2023-05-24T00:37:19;34.53;;;8.43;;
55202;SDS011;41077;52.956;6.796;2023-05-24T00:39:46;33.63;;;8.15;;
55202;SDS011;41077;52.956;6.796;2023-05-24T00:42:12;37.58;;;7.95;;
55202;SDS011;41077;52.956;6.796;2023-05-24T00:44:38;38.33;;;9.25;;
55202;SDS011;41077;52.956;6.796;2023-05-24T00:47:04;34.17;;;10.20;;
55202;SDS011;41077;52.956;6.796;2023-05-24T00:49:31;33.92;;;9.25;;
55202;SDS011;41077;52.956;6.796;2023-05-24T00:51:57;41.90;;;10.98;;
55202;SDS011;41077;52.956;6.796;2023-05-24T00:54:23;42.55;;;11.65;;
55202;SDS011;41077;52.956;6.796;2023-05-24T00:56:50;32.75;;;10.48;;
55202;SDS011;41077;52.956;6.796;2023-05-24T00:59:17;30.63;;;8.30;;
55202;SDS011;41077;52.956;6.796;2023-05-24T01:01:43;32.50;;;9.80;;
55202;SDS011;41077;52.956;6.796;2023-05-24T01:04:11;35.17;;;9.75;;
55202;SDS011;41077;52.956;6.796;2023-05-24T01:06:50;40.25;;;9.65;;
55202;SDS011;41077;52.956;6.796;2023-05-24T01:09:24;42.20;;;9.40;;
55202;SDS011;41077;52.956;6.796;2023-05-24T01:11:59;32.30;;;9.20;;
55202;SDS011;41077;52.956;6.796;2023-05-24T01:14:33;34.88;;;10.18;;
55202;SDS011;41077;52.956;6.796;2023-05-24T01:17:03;33.85;;;10.07;;
55202;SDS011;41077;52.956;6.796;2023-05-24T01:22:11;38.67;;;9.82;;
55202;SDS011;41077;52.956;6.796;2023-05-24T01:24:43;37.47;;;9.88;;
55202;SDS011;41077;52.956;6.796;2023-05-24T01:27:17;32.85;;;9.27;;
55202;SDS011;41077;52.956;6.796;2023-05-24T01:29:44;33.55;;;10.13;;
55202;SDS011;41077;52.956;6.796;2023-05-24T01:32:17;43.25;;;9.85;;
55202;SDS011;41077;52.956;6.796;2023-05-24T01:34:44;30.58;;;8.93;;
55202;SDS011;41077;52.956;6.796;2023-05-24T01:37:10;41.47;;;9.63;;
55202;SDS011;41077;52.956;6.796;2023-05-24T01:39:36;42.03;;;9.75;;
55202;SDS011;41077;52.956;6.796;2023-05-24T01:42:21;37.95;;;11.30;;
55202;SDS011;41077;52.956;6.796;2023-05-24T01:50:12;43.60;;;10.93;;
55202;SDS011;41077;52.956;6.796;2023-05-24T01:52:39;40.80;;;9.80;;
55202;SDS011;41077;52.956;6.796;2023-05-24T01:55:09;33.03;;;9.68;;
55202;SDS011;41077;52.956;6.796;2023-05-24T01:57:37;45.55;;;8.63;;
55202;SDS011;41077;52.956;6.796;2023-05-24T02:00:05;39.47;;;10.55;;
55202;SDS011;41077;52.956;6.796;2023-05-24T02:02:32;41.47;;;9.32;;
55202;SDS011;41077;52.956;6.796;2023-05-24T02:04:58;38.03;;;10.50;;
55202;SDS011;41077;52.956;6.796;2023-05-24T02:07:24;47.90;;;12.85;;
55202;SDS011;41077;52.956;6.796;2023-05-24T02:09:50;30.95;;;9.35;;
55202;SDS011;41077;52.956;6.796;2023-05-24T02:12:16;41.65;;;9.10;;
55202;SDS011;41077;52.956;6.796;2023-05-24T02:14:42;34.42;;;8.93;;
55202;SDS011;41077;52.956;6.796;2023-05-24T02:17:08;43.53;;;12.02;;
55202;SDS011;41077;52.956;6.796;2023-05-24T02:19:34;41.20;;;9.88;;
55202;SDS011;41077;52.956;6.796;2023-05-24T02:22:01;35.60;;;10.63;;
55202;SDS011;41077;52.956;6.796;2023-05-24T02:24:27;36.75;;;8.95;;
55202;SDS011;41077;52.956;6.796;2023-05-24T02:26:53;37.97;;;8.40;;
55202;SDS011;41077;52.956;6.796;2023-05-24T02:29:20;42.80;;;10.07;;
55202;SDS011;41077;52.956;6.796;2023-05-24T02:31:47;42.92;;;9.23;;
55202;SDS011;41077;52.956;6.796;2023-05-24T02:34:18;36.67;;;10.70;;
55202;SDS011;41077;52.956;6.796;2023-05-24T02:36:45;39.83;;;9.73;;
55202;SDS011;41077;52.956;6.796;2023-05-24T02:39:11;35.95;;;9.40;;
55202;SDS011;41077;52.956;6.796;2023-05-24T02:41:37;32.17;;;9.77;;
55202;SDS011;41077;52.956;6.796;2023-05-24T02:44:03;42.90;;;9.88;;
55202;SDS011;41077;52.956;6.796;2023-05-24T02:46:29;25.75;;;9.25;;
55202;SDS011;41077;52.956;6.796;2023-05-24T02:48:55;38.58;;;10.38;;
55202;SDS011;41077;52.956;6.796;2023-05-24T02:51:21;35.13;;;9.20;;
55202;SDS011;41077;52.956;6.796;2023-05-24T02:53:47;31.45;;;8.63;;
55202;SDS011;41077;52.956;6.796;2023-05-24T02:56:13;23.65;;;8.95;;
55202;SDS011;41077;52.956;6.796;2023-05-24T02:58:41;28.23;;;8.52;;
55202;SDS011;41077;52.956;6.796;2023-05-24T03:01:09;29.73;;;8.50;;
55202;SDS011;41077;52.956;6.796;2023-05-24T03:03:36;32.20;;;9.93;;
55202;SDS011;41077;52.956;6.796;2023-05-24T03:06:03;41.38;;;11.07;;
55202;SDS011;41077;52.956;6.796;2023-05-24T03:08:29;43.28;;;10.35;;
55202;SDS011;41077;52.956;6.796;2023-05-24T03:10:55;28.17;;;8.63;;
55202;SDS011;41077;52.956;6.796;2023-05-24T03:13:21;38.13;;;10.60;;
55202;SDS011;41077;52.956;6.796;2023-05-24T03:15:47;28.95;;;8.48;;
55202;SDS011;41077;52.956;6.796;2023-05-24T03:18:13;35.70;;;9.30;;
55202;SDS011;41077;52.956;6.796;2023-05-24T03:20:39;37.13;;;9.27;;
55202;SDS011;41077;52.956;6.796;2023-05-24T03:23:05;25.98;;;10.00;;
55202;SDS011;41077;52.956;6.796;2023-05-24T03:25:33;31.38;;;9.25;;
55202;SDS011;41077;52.956;6.796;2023-05-24T03:27:59;34.42;;;8.43;;
55202;SDS011;41077;52.956;6.796;2023-05-24T03:30:26;31.73;;;9.15;;
55202;SDS011;41077;52.956;6.796;2023-05-24T03:32:52;27.15;;;10.52;;
55202;SDS011;41077;52.956;6.796;2023-05-24T03:35:19;29.17;;;9.52;;
55202;SDS011;41077;52.956;6.796;2023-05-24T03:37:45;36.20;;;9.52;;
55202;SDS011;41077;52.956;6.796;2023-05-24T03:40:11;33.15;;;9.13;;
55202;SDS011;41077;52.956;6.796;2023-05-24T03:42:37;32.63;;;9.35;;
55202;SDS011;41077;52.956;6.796;2023-05-24T03:45:04;32.67;;;10.45;;
55202;SDS011;41077;52.956;6.796;2023-05-24T03:47:30;32.45;;;10.00;;
55202;SDS011;41077;52.956;6.796;2023-05-24T03:49:56;38.50;;;10.35;;
55202;SDS011;41077;52.956;6.796;2023-05-24T03:52:22;27.15;;;9.10;;
55202;SDS011;41077;52.956;6.796;2023-05-24T03:54:48;37.47;;;9.93;;
55202;SDS011;41077;52.956;6.796;2023-05-24T03:57:14;39.83;;;10.13;;
55202;SDS011;41077;52.956;6.796;2023-05-24T03:59:40;36.60;;;10.55;;
55202;SDS011;41077;52.956;6.796;2023-05-24T04:02:06;26.83;;;8.05;;
55202;SDS011;41077;52.956;6.796;2023-05-24T04:04:32;37.05;;;9.60;;
55202;SDS011;41077;52.956;6.796;2023-05-24T04:06:58;29.50;;;8.88;;
55202;SDS011;41077;52.956;6.796;2023-05-24T04:09:24;31.85;;;9.20;;
55202;SDS011;41077;52.956;6.796;2023-05-24T04:11:51;31.92;;;8.13;;
55202;SDS011;41077;52.956;6.796;2023-05-24T04:14:17;43.83;;;8.82;;
55202;SDS011;41077;52.956;6.796;2023-05-24T04:16:43;29.90;;;9.70;;
55202;SDS011;41077;52.956;6.796;2023-05-24T04:19:09;39.42;;;8.52;;
55202;SDS011;41077;52.956;6.796;2023-05-24T04:21:36;35.30;;;9.57;;
55202;SDS011;41077;52.956;6.796;2023-05-24T04:24:02;27.63;;;10.48;;
55202;SDS011;41077;52.956;6.796;2023-05-24T04:26:29;45.13;;;9.73;;
55202;SDS011;41077;52.956;6.796;2023-05-24T04:28:55;35.25;;;9.43;;
55202;SDS011;41077;52.956;6.796;2023-05-24T04:31:22;35.92;;;8.82;;
55202;SDS011;41077;52.956;6.796;2023-05-24T04:33:48;36.53;;;9.65;;
55202;SDS011;41077;52.956;6.796;2023-05-24T04:36:14;39.78;;;8.57;;
55202;SDS011;41077;52.956;6.796;2023-05-24T04:38:41;31.50;;;8.60;;
55202;SDS011;41077;52.956;6.796;2023-05-24T04:41:09;27.38;;;8.32;;
55202;SDS011;41077;52.956;6.796;2023-05-24T04:43:36;39.17;;;8.93;;
55202;SDS011;41077;52.956;6.796;2023-05-24T04:46:03;30.48;;;7.88;;
55202;SDS011;41077;52.956;6.796;2023-05-24T04:48:29;22.20;;;7.35;;
55202;SDS011;41077;52.956;6.796;2023-05-24T04:50:55;35.00;;;8.23;;
55202;SDS011;41077;52.956;6.796;2023-05-24T04:53:22;33.45;;;7.95;;
55202;SDS011;41077;52.956;6.796;2023-05-24T04:55:49;32.63;;;8.02;;
55202;SDS011;41077;52.956;6.796;2023-05-24T04:58:15;30.30;;;7.68;;
55202;SDS011;41077;52.956;6.796;2023-05-24T05:00:41;21.15;;;6.47;;
55202;SDS011;41077;52.956;6.796;2023-05-24T05:03:08;29.00;;;6.82;;
55202;SDS011;41077;52.956;6.796;2023-05-24T05:05:34;28.40;;;7.13;;
55202;SDS011;41077;52.956;6.796;2023-05-24T05:08:01;23.98;;;6.82;;
55202;SDS011;41077;52.956;6.796;2023-05-24T05:10:27;26.70;;;7.40;;
55202;SDS011;41077;52.956;6.796;2023-05-24T05:12:53;27.02;;;7.00;;
55202;SDS011;41077;52.956;6.796;2023-05-24T05:15:20;33.03;;;7.00;;
55202;SDS011;41077;52.956;6.796;2023-05-24T05:17:47;26.35;;;6.32;;
55202;SDS011;41077;52.956;6.796;2023-05-24T05:20:13;35.80;;;7.10;;
55202;SDS011;41077;52.956;6.796;2023-05-24T05:22:49;20.23;;;5.88;;
55202;SDS011;41077;52.956;6.796;2023-05-24T05:25:15;23.42;;;6.93;;
55202;SDS011;41077;52.956;6.796;2023-05-24T05:27:42;29.83;;;6.85;;
55202;SDS011;41077;52.956;6.796;2023-05-24T05:30:08;22.08;;;6.20;;
55202;SDS011;41077;52.956;6.796;2023-05-24T05:32:34;29.08;;;7.25;;
55202;SDS011;41077;52.956;6.796;2023-05-24T05:35:01;30.42;;;6.60;;
55202;SDS011;41077;52.956;6.796;2023-05-24T05:37:27;37.42;;;7.93;;
55202;SDS011;41077;52.956;6.796;2023-05-24T05:39:55;25.00;;;7.50;;
55202;SDS011;41077;52.956;6.796;2023-05-24T05:42:21;22.17;;;7.25;;
55202;SDS011;41077;52.956;6.796;2023-05-24T05:44:47;26.33;;;6.55;;
55202;SDS011;41077;52.956;6.796;2023-05-24T05:47:13;33.53;;;7.65;;
55202;SDS011;41077;52.956;6.796;2023-05-24T05:49:39;27.88;;;7.25;;
55202;SDS011;41077;52.956;6.796;2023-05-24T05:52:05;30.05;;;6.95;;
55202;SDS011;41077;52.956;6.796;2023-05-24T05:54:31;24.05;;;6.45;;
55202;SDS011;41077;52.956;6.796;2023-05-24T05:56:57;35.22;;;7.68;;
55202;SDS011;41077;52.956;6.796;2023-05-24T05:59:22;15.48;;;5.65;;
55202;SDS011;41077;52.956;6.796;2023-05-24T06:01:48;26.08;;;5.90;;
55202;SDS011;41077;52.956;6.796;2023-05-24T06:04:14;22.98;;;6.38;;
55202;SDS011;41077;52.956;6.796;2023-05-24T06:06:40;28.30;;;7.00;;
55202;SDS011;41077;52.956;6.796;2023-05-24T06:09:06;25.30;;;7.45;;
55202;SDS011;41077;52.956;6.796;2023-05-24T06:11:32;28.63;;;8.40;;
55202;SDS011;41077;52.956;6.796;2023-05-24T06:13:58;30.52;;;8.65;;
55202;SDS011;41077;52.956;6.796;2023-05-24T06:16:24;24.00;;;6.60;;
55202;SDS011;41077;52.956;6.796;2023-05-24T06:18:50;34.90;;;7.55;;
55202;SDS011;41077;52.956;6.796;2023-05-24T06:21:15;25.38;;;6.47;;
55202;SDS011;41077;52.956;6.796;2023-05-24T06:23:41;22.65;;;7.35;;
55202;SDS011;41077;52.956;6.796;2023-05-24T06:26:07;24.90;;;6.50;;
55202;SDS011;41077;52.956;6.796;2023-05-24T06:28:34;20.30;;;7.10;;
55202;SDS011;41077;52.956;6.796;2023-05-24T06:31:00;25.27;;;6.80;;
55202;SDS011;41077;52.956;6.796;2023-05-24T06:33:30;25.10;;;5.72;;
55202;SDS011;41077;52.956;6.796;2023-05-24T06:35:56;19.98;;;5.95;;
55202;SDS011;41077;52.956;6.796;2023-05-24T06:38:22;24.77;;;7.63;;
55202;SDS011;41077;52.956;6.796;2023-05-24T06:40:48;18.65;;;5.45;;
55202;SDS011;41077;52.956;6.796;2023-05-24T06:43:14;22.08;;;6.90;;
55202;SDS011;41077;52.956;6.796;2023-05-24T06:45:40;28.88;;;5.75;;
55202;SDS011;41077;52.956;6.796;2023-05-24T06:48:06;25.10;;;5.35;;
55202;SDS011;41077;52.956;6.796;2023-05-24T06:50:31;19.73;;;6.13;;
55202;SDS011;41077;52.956;6.796;2023-05-24T06:52:57;24.40;;;5.57;;
55202;SDS011;41077;52.956;6.796;2023-05-24T06:55:23;23.67;;;5.80;;
55202;SDS011;41077;52.956;6.796;2023-05-24T06:57:49;22.58;;;5.93;;
55202;SDS011;41077;52.956;6.796;2023-05-24T07:00:14;23.42;;;6.75;;
55202;SDS011;41077;52.956;6.796;2023-05-24T07:02:41;22.92;;;7.05;;
55202;SDS011;41077;52.956;6.796;2023-05-24T07:05:07;29.35;;;6.53;;
55202;SDS011;41077;52.956;6.796;2023-05-24T07:07:45;22.73;;;5.57;;
55202;SDS011;41077;52.956;6.796;2023-05-24T07:10:11;20.38;;;5.30;;
55202;SDS011;41077;52.956;6.796;2023-05-24T07:12:37;22.13;;;6.80;;
55202;SDS011;41077;52.956;6.796;2023-05-24T07:15:03;23.15;;;5.95;;
55202;SDS011;41077;52.956;6.796;2023-05-24T07:17:31;20.42;;;5.05;;
55202;SDS011;41077;52.956;6.796;2023-05-24T07:19:56;17.27;;;5.20;;
55202;SDS011;41077;52.956;6.796;2023-05-24T07:22:23;24.67;;;6.95;;
55202;SDS011;41077;52.956;6.796;2023-05-24T07:24:49;19.52;;;4.78;;
55202;SDS011;41077;52.956;6.796;2023-05-24T07:27:15;19.40;;;4.95;;
55202;SDS011;41077;52.956;6.796;2023-05-24T07:29:41;18.38;;;5.20;;
55202;SDS011;41077;52.956;6.796;2023-05-24T07:32:07;22.95;;;5.40;;
55202;SDS011;41077;52.956;6.796;2023-05-24T07:34:32;23.67;;;5.93;;
55202;SDS011;41077;52.956;6.796;2023-05-24T07:36:59;13.57;;;5.10;;
55202;SDS011;41077;52.956;6.796;2023-05-24T07:39:25;24.73;;;5.97;;
55202;SDS011;41077;52.956;6.796;2023-05-24T07:41:52;17.67;;;5.22;;
55202;SDS011;41077;52.956;6.796;2023-05-24T07:44:18;18.30;;;4.95;;
55202;SDS011;41077;52.956;6.796;2023-05-24T07:46:44;18.23;;;4.55;;
55202;SDS011;41077;52.956;6.796;2023-05-24T07:49:10;13.95;;;5.78;;
55202;SDS011;41077;52.956;6.796;2023-05-24T07:51:36;13.77;;;3.97;;
55202;SDS011;41077;52.956;6.796;2023-05-24T07:54:03;21.95;;;5.13;;
55202;SDS011;41077;52.956;6.796;2023-05-24T07:56:29;14.13;;;3.67;;
55202;SDS011;41077;52.956;6.796;2023-05-24T07:58:56;17.90;;;4.40;;
55202;SDS011;41077;52.956;6.796;2023-05-24T08:01:27;19.20;;;5.03;;
55202;SDS011;41077;52.956;6.796;2023-05-24T08:03:54;17.42;;;4.82;;
55202;SDS011;41077;52.956;6.796;2023-05-24T08:06:20;14.80;;;5.20;;
55202;SDS011;41077;52.956;6.796;2023-05-24T08:08:46;14.88;;;4.55;;
55202;SDS011;41077;52.956;6.796;2023-05-24T08:11:12;23.98;;;5.40;;
55202;SDS011;41077;52.956;6.796;2023-05-24T08:13:38;10.32;;;4.55;;
55202;SDS011;41077;52.956;6.796;2023-05-24T08:16:03;18.13;;;4.28;;
55202;SDS011;41077;52.956;6.796;2023-05-24T08:18:29;19.27;;;4.63;;
55202;SDS011;41077;52.956;6.796;2023-05-24T08:20:55;16.15;;;4.68;;
55202;SDS011;41077;52.956;6.796;2023-05-24T08:23:21;13.85;;;3.70;;
55202;SDS011;41077;52.956;6.796;2023-05-24T08:25:47;13.05;;;4.55;;
55202;SDS011;41077;52.956;6.796;2023-05-24T08:28:12;10.30;;;3.30;;
55202;SDS011;41077;52.956;6.796;2023-05-24T08:30:38;17.33;;;4.30;;
55202;SDS011;41077;52.956;6.796;2023-05-24T08:33:04;13.40;;;4.07;;
55202;SDS011;41077;52.956;6.796;2023-05-24T08:35:29;11.82;;;4.07;;
55202;SDS011;41077;52.956;6.796;2023-05-24T08:37:55;19.00;;;5.13;;
55202;SDS011;41077;52.956;6.796;2023-05-24T08:40:21;15.40;;;4.40;;
55202;SDS011;41077;52.956;6.796;2023-05-24T08:42:49;12.13;;;3.92;;
55202;SDS011;41077;52.956;6.796;2023-05-24T08:45:16;11.80;;;3.72;;
55202;SDS011;41077;52.956;6.796;2023-05-24T08:47:42;15.10;;;4.15;;
55202;SDS011;41077;52.956;6.796;2023-05-24T08:50:11;17.25;;;4.60;;
55202;SDS011;41077;52.956;6.796;2023-05-24T08:52:37;22.58;;;4.80;;
55202;SDS011;41077;52.956;6.796;2023-05-24T08:55:04;20.90;;;5.38;;
55202;SDS011;41077;52.956;6.796;2023-05-24T08:57:31;12.30;;;4.55;;
55202;SDS011;41077;52.956;6.796;2023-05-24T08:59:58;14.40;;;4.78;;
55202;SDS011;41077;52.956;6.796;2023-05-24T09:02:25;18.35;;;5.63;;
55202;SDS011;41077;52.956;6.796;2023-05-24T09:04:51;20.20;;;4.85;;
55202;SDS011;41077;52.956;6.796;2023-05-24T09:07:18;18.35;;;4.30;;
55202;SDS011;41077;52.956;6.796;2023-05-24T09:09:49;13.48;;;3.80;;
55202;SDS011;41077;52.956;6.796;2023-05-24T09:12:21;11.15;;;4.47;;
55202;SDS011;41077;52.956;6.796;2023-05-24T09:14:48;17.30;;;4.20;;
55202;SDS011;41077;52.956;6.796;2023-05-24T09:17:14;13.70;;;5.15;;
55202;SDS011;41077;52.956;6.796;2023-05-24T09:19:44;13.05;;;3.95;;
55202;SDS011;41077;52.956;6.796;2023-05-24T09:22:11;19.75;;;5.75;;
55202;SDS011;41077;52.956;6.796;2023-05-24T09:24:48;12.85;;;4.28;;
55202;SDS011;41077;52.956;6.796;2023-05-24T09:27:14;13.75;;;4.10;;
55202;SDS011;41077;52.956;6.796;2023-05-24T09:29:46;13.30;;;4.03;;
55202;SDS011;41077;52.956;6.796;2023-05-24T09:32:17;18.05;;;3.75;;
55202;SDS011;41077;52.956;6.796;2023-05-24T09:34:46;19.20;;;5.13;;
55202;SDS011;41077;52.956;6.796;2023-05-24T09:37:15;15.20;;;4.80;;
55202;SDS011;41077;52.956;6.796;2023-05-24T09:39:43;11.73;;;4.05;;
55202;SDS011;41077;52.956;6.796;2023-05-24T09:42:15;13.32;;;4.45;;
55202;SDS011;41077;52.956;6.796;2023-05-24T09:44:43;11.73;;;3.55;;
55202;SDS011;41077;52.956;6.796;2023-05-24T09:47:08;17.00;;;4.47;;
55202;SDS011;41077;52.956;6.796;2023-05-24T09:49:36;10.75;;;4.55;;
55202;SDS011;41077;52.956;6.796;2023-05-24T09:52:02;10.82;;;3.60;;
55202;SDS011;41077;52.956;6.796;2023-05-24T09:54:29;9.90;;;3.42;;
55202;SDS011;41077;52.956;6.796;2023-05-24T09:56:56;14.90;;;3.92;;
55202;SDS011;41077;52.956;6.796;2023-05-24T09:59:26;16.77;;;4.22;;
55202;SDS011;41077;52.956;6.796;2023-05-24T10:01:55;13.90;;;3.65;;
55202;SDS011;41077;52.956;6.796;2023-05-24T10:04:31;16.27;;;4.10;;
55202;SDS011;41077;52.956;6.796;2023-05-24T10:06:57;12.65;;;3.75;;
55202;SDS011;41077;52.956;6.796;2023-05-24T10:09:26;13.82;;;3.63;;
55202;SDS011;41077;52.956;6.796;2023-05-24T10:12:07;11.13;;;3.45;;
55202;SDS011;41077;52.956;6.796;2023-05-24T10:17:01;12.00;;;3.50;;
55202;SDS011;41077;52.956;6.796;2023-05-24T10:19:31;10.77;;;4.00;;
55202;SDS011;41077;52.956;6.796;2023-05-24T10:21:57;15.73;;;4.50;;
55202;SDS011;41077;52.956;6.796;2023-05-24T10:24:26;14.93;;;4.57;;
55202;SDS011;41077;52.956;6.796;2023-05-24T10:27:14;16.48;;;4.75;;
55202;SDS011;41077;52.956;6.796;2023-05-24T10:32:12;11.00;;;3.55;;
55202;SDS011;41077;52.956;6.796;2023-05-24T10:34:40;13.60;;;3.55;;
55202;SDS011;41077;52.956;6.796;2023-05-24T10:37:07;16.75;;;4.35;;
55202;SDS011;41077;52.956;6.796;2023-05-24T10:39:33;17.38;;;4.40;;
55202;SDS011;41077;52.956;6.796;2023-05-24T10:42:03;13.77;;;4.00;;
55202;SDS011;41077;52.956;6.796;2023-05-24T10:44:30;11.70;;;3.75;;
55202;SDS011;41077;52.956;6.796;2023-05-24T10:47:06;16.00;;;4.18;;
55202;SDS011;41077;52.956;6.796;2023-05-24T10:49:37;18.27;;;5.72;;
55202;SDS011;41077;52.956;6.796;2023-05-24T10:52:15;14.93;;;3.70;;
55202;SDS011;41077;52.956;6.796;2023-05-24T10:54:59;11.90;;;4.07;;
55202;SDS011;41077;52.956;6.796;2023-05-24T10:57:29;16.33;;;3.72;;
55202;SDS011;41077;52.956;6.796;2023-05-24T10:59:57;13.45;;;3.83;;
55202;SDS011;41077;52.956;6.796;2023-05-24T11:02:42;10.27;;;3.88;;
55202;SDS011;41077;52.956;6.796;2023-05-24T11:05:08;10.60;;;3.25;;
55202;SDS011;41077;52.956;6.796;2023-05-24T11:07:39;11.25;;;3.42;;
55202;SDS011;41077;52.956;6.796;2023-05-24T11:10:15;10.02;;;3.42;;
55202;SDS011;41077;52.956;6.796;2023-05-24T11:12:58;14.07;;;4.13;;
55202;SDS011;41077;52.956;6.796;2023-05-24T11:15:26;13.38;;;3.80;;
55202;SDS011;41077;52.956;6.796;2023-05-24T11:20:36;12.82;;;4.28;;
55202;SDS011;41077;52.956;6.796;2023-05-24T11:23:02;9.77;;;3.95;;
55202;SDS011;41077;52.956;6.796;2023-05-24T11:25:31;9.18;;;3.63;;
55202;SDS011;41077;52.956;6.796;2023-05-24T11:27:57;10.02;;;3.55;;
55202;SDS011;41077;52.956;6.796;2023-05-24T11:30:25;12.25;;;3.65;;
55202;SDS011;41077;52.956;6.796;2023-05-24T11:32:51;12.82;;;4.15;;
55202;SDS011;41077;52.956;6.796;2023-05-24T11:35:19;11.57;;;4.57;;
55202;SDS011;41077;52.956;6.796;2023-05-24T11:37:47;14.95;;;4.40;;
55202;SDS011;41077;52.956;6.796;2023-05-24T11:40:12;10.73;;;3.55;;
55202;SDS011;41077;52.956;6.796;2023-05-24T11:42:40;11.90;;;4.18;;
55202;SDS011;41077;52.956;6.796;2023-05-24T11:45:08;9.93;;;3.55;;
55202;SDS011;41077;52.956;6.796;2023-05-24T11:47:36;11.43;;;3.80;;
55202;SDS011;41077;52.956;6.796;2023-05-24T11:50:02;11.25;;;3.85;;
55202;SDS011;41077;52.956;6.796;2023-05-24T11:52:29;14.75;;;3.83;;
55202;SDS011;41077;52.956;6.796;2023-05-24T11:54:55;12.55;;;4.22;;
55202;SDS011;41077;52.956;6.796;2023-05-24T11:57:23;15.00;;;4.03;;
55202;SDS011;41077;52.956;6.796;2023-05-24T11:59:54;14.30;;;3.85;;
55202;SDS011;41077;52.956;6.796;2023-05-24T12:02:22;13.85;;;4.15;;
55202;SDS011;41077;52.956;6.796;2023-05-24T12:04:48;11.80;;;3.90;;
55202;SDS011;41077;52.956;6.796;2023-05-24T12:07:14;16.98;;;4.10;;
55202;SDS011;41077;52.956;6.796;2023-05-24T12:09:40;15.63;;;4.20;;
55202;SDS011;41077;52.956;6.796;2023-05-24T12:12:06;15.57;;;4.20;;
55202;SDS011;41077;52.956;6.796;2023-05-24T12:14:32;14.48;;;5.57;;
55202;SDS011;41077;52.956;6.796;2023-05-24T12:16:59;15.90;;;5.20;;
55202;SDS011;41077;52.956;6.796;2023-05-24T12:19:29;12.05;;;4.85;;
55202;SDS011;41077;52.956;6.796;2023-05-24T12:21:58;18.48;;;4.97;;
55202;SDS011;41077;52.956;6.796;2023-05-24T12:24:25;14.10;;;4.47;;
55202;SDS011;41077;52.956;6.796;2023-05-24T12:26:56;16.35;;;3.60;;
55202;SDS011;41077;52.956;6.796;2023-05-24T12:29:30;12.50;;;4.10;;
55202;SDS011;41077;52.956;6.796;2023-05-24T12:31:58;10.98;;;3.80;;
55202;SDS011;41077;52.956;6.796;2023-05-24T12:34:24;21.27;;;5.13;;
55202;SDS011;41077;52.956;6.796;2023-05-24T12:36:50;14.38;;;5.10;;
55202;SDS011;41077;52.956;6.796;2023-05-24T12:41:52;17.20;;;4.85;;
55202;SDS011;41077;52.956;6.796;2023-05-24T12:44:23;15.35;;;4.28;;
55202;SDS011;41077;52.956;6.796;2023-05-24T12:46:50;17.73;;;4.70;;
55202;SDS011;41077;52.956;6.796;2023-05-24T12:49:20;11.35;;;3.83;;
55202;SDS011;41077;52.956;6.796;2023-05-24T12:51:46;14.32;;;3.70;;
55202;SDS011;41077;52.956;6.796;2023-05-24T12:54:13;17.73;;;5.10;;
55202;SDS011;41077;52.956;6.796;2023-05-24T12:56:39;15.20;;;3.60;;
55202;SDS011;41077;52.956;6.796;2023-05-24T12:59:04;12.02;;;4.15;;
55202;SDS011;41077;52.956;6.796;2023-05-24T13:01:30;14.00;;;4.13;;
55202;SDS011;41077;52.956;6.796;2023-05-24T13:03:56;12.98;;;4.25;;
55202;SDS011;41077;52.956;6.796;2023-05-24T13:06:23;12.60;;;3.78;;
55202;SDS011;41077;52.956;6.796;2023-05-24T13:08:49;12.30;;;3.78;;
55202;SDS011;41077;52.956;6.796;2023-05-24T13:11:15;13.95;;;5.15;;
55202;SDS011;41077;52.956;6.796;2023-05-24T13:13:41;14.95;;;4.07;;
55202;SDS011;41077;52.956;6.796;2023-05-24T13:16:08;15.25;;;4.45;;
55202;SDS011;41077;52.956;6.796;2023-05-24T13:18:34;11.65;;;3.90;;
55202;SDS011;41077;52.956;6.796;2023-05-24T13:21:02;14.80;;;4.03;;
55202;SDS011;41077;52.956;6.796;2023-05-24T13:23:32;14.10;;;4.22;;
55202;SDS011;41077;52.956;6.796;2023-05-24T13:26:01;13.15;;;4.10;;
55202;SDS011;41077;52.956;6.796;2023-05-24T13:28:28;15.85;;;3.88;;
55202;SDS011;41077;52.956;6.796;2023-05-24T13:30:55;14.50;;;5.35;;
55202;SDS011;41077;52.956;6.796;2023-05-24T13:33:20;16.58;;;4.25;;
55202;SDS011;41077;52.956;6.796;2023-05-24T13:35:46;16.20;;;4.28;;
55202;SDS011;41077;52.956;6.796;2023-05-24T13:38:12;10.43;;;3.67;;
55202;SDS011;41077;52.956;6.796;2023-05-24T13:40:38;22.05;;;4.57;;
55202;SDS011;41077;52.956;6.796;2023-05-24T13:43:05;15.55;;;4.13;;
55202;SDS011;41077;52.956;6.796;2023-05-24T13:45:31;12.93;;;4.55;;
55202;SDS011;41077;52.956;6.796;2023-05-24T13:47:57;17.50;;;4.88;;
55202;SDS011;41077;52.956;6.796;2023-05-24T13:50:34;14.75;;;4.15;;
55202;SDS011;41077;52.956;6.796;2023-05-24T13:53:01;15.60;;;3.97;;
55202;SDS011;41077;52.956;6.796;2023-05-24T13:55:28;12.88;;;4.35;;
55202;SDS011;41077;52.956;6.796;2023-05-24T13:57:55;13.95;;;4.28;;
55202;SDS011;41077;52.956;6.796;2023-05-24T14:00:21;20.05;;;5.28;;
55202;SDS011;41077;52.956;6.796;2023-05-24T14:02:48;10.30;;;3.65;;
55202;SDS011;41077;52.956;6.796;2023-05-24T14:05:15;18.08;;;4.20;;
55202;SDS011;41077;52.956;6.796;2023-05-24T14:07:42;20.63;;;4.05;;
55202;SDS011;41077;52.956;6.796;2023-05-24T14:10:08;15.70;;;4.57;;
55202;SDS011;41077;52.956;6.796;2023-05-24T14:12:35;12.00;;;3.90;;
55202;SDS011;41077;52.956;6.796;2023-05-24T14:15:01;17.02;;;4.40;;
55202;SDS011;41077;52.956;6.796;2023-05-24T14:17:28;14.68;;;4.40;;
55202;SDS011;41077;52.956;6.796;2023-05-24T14:19:55;14.52;;;3.30;;
55202;SDS011;41077;52.956;6.796;2023-05-24T14:22:21;19.40;;;4.80;;
55202;SDS011;41077;52.956;6.796;2023-05-24T14:24:48;17.75;;;3.90;;
55202;SDS011;41077;52.956;6.796;2023-05-24T14:27:14;10.40;;;4.45;;
55202;SDS011;41077;52.956;6.796;2023-05-24T14:29:40;17.80;;;3.70;;
55202;SDS011;41077;52.956;6.796;2023-05-24T14:32:06;10.35;;;3.60;;
55202;SDS011;41077;52.956;6.796;2023-05-24T14:34:32;11.15;;;3.28;;
55202;SDS011;41077;52.956;6.796;2023-05-24T14:36:57;11.70;;;4.18;;
55202;SDS011;41077;52.956;6.796;2023-05-24T14:39:23;13.70;;;3.92;;
55202;SDS011;41077;52.956;6.796;2023-05-24T14:41:49;13.95;;;3.10;;
55202;SDS011;41077;52.956;6.796;2023-05-24T14:44:15;11.32;;;2.92;;
55202;SDS011;41077;52.956;6.796;2023-05-24T14:46:41;9.77;;;4.10;;
55202;SDS011;41077;52.956;6.796;2023-05-24T14:49:07;10.20;;;3.28;;
55202;SDS011;41077;52.956;6.796;2023-05-24T14:51:33;11.57;;;3.85;;